MTJ weather

Public forecast

Using degrees Fahrenheit for public forecast. Weather courtesy of forecast.io.

Current aviation weather report (METAR) for Montrose Regional Airport

Retrieved 2020/08/09 01:53 UTC (23 minutes ago):

KMTJ 090153Z AUTO 26006KT 10SM CLR 29/M04 A3016 RMK AO2 SLP124 T02891039

Aviation forecast (TAF) for Montrose Regional Airport

Retrieved 2020-08-09 00:22 UTC (2 hours ago):

TAF KMTJ 082320Z 0900/0924 26010G20KT P6SM FEW120 FM090100 21010KT P6SM FEW120 FM090300 14008KT P6SM SKC FM091400 VRB04KT P6SM SKC FM091800 33006KT P6SM SCT150